createdAt,value
2023-02-11T00:05:05.265Z,39.40
2023-02-11T00:10:09.577Z,43.13
2023-02-11T00:15:13.342Z,42.70
2023-02-11T00:20:18.327Z,39.27
2023-02-11T00:25:22.015Z,44.70
2023-02-11T00:30:25.729Z,48.27
2023-02-11T00:35:31.810Z,41.53
2023-02-11T00:40:35.163Z,39.57
2023-02-11T00:45:40.228Z,49.07
2023-02-11T00:50:45.342Z,42.83
2023-02-11T00:55:48.918Z,41.43
2023-02-11T01:00:53.780Z,41.73
2023-02-11T01:05:58.561Z,40.30
2023-02-11T01:11:05.893Z,44.07
2023-02-11T01:16:12.203Z,41.77
2023-02-11T01:21:17.052Z,43.17
2023-02-11T01:26:20.514Z,39.53
2023-02-11T01:31:24.940Z,39.00
2023-02-11T01:36:30.544Z,44.97
2023-02-11T01:41:37.791Z,40.60
2023-02-11T01:46:41.175Z,37.70
2023-02-11T01:51:51.017Z,44.37
2023-02-11T01:57:11.243Z,43.77
2023-02-11T02:02:19.252Z,41.10
2023-02-11T02:07:34.169Z,40.17
2023-02-11T02:12:37.570Z,38.17
2023-02-11T02:17:55.610Z,47.43
2023-02-11T02:23:27.592Z,39.43
2023-02-11T02:28:46.945Z,39.07
2023-02-11T02:33:56.765Z,38.90
2023-02-11T02:39:09.813Z,37.07
2023-02-11T02:44:13.362Z,42.53
2023-02-11T02:49:18.825Z,43.20
2023-02-11T02:54:46.154Z,41.03
2023-02-11T03:00:04.401Z,39.23
2023-02-11T03:05:17.648Z,33.57
2023-02-11T03:10:26.378Z,38.37
2023-02-11T03:15:34.176Z,37.77
2023-02-11T03:20:43.121Z,41.47
2023-02-11T03:25:51.919Z,36.17
2023-02-11T03:31:01.998Z,36.27
2023-02-11T03:36:12.180Z,40.20
2023-02-11T03:41:17.584Z,37.70
2023-02-11T03:46:24.623Z,42.53
2023-02-11T03:51:32.763Z,37.33
2023-02-11T03:56:43.445Z,38.60
2023-02-11T04:01:46.874Z,36.27
2023-02-11T04:07:16.567Z,36.83
2023-02-11T04:12:20.191Z,34.07
2023-02-11T04:17:23.551Z,33.83
2023-02-11T04:22:28.405Z,40.17
2023-02-11T04:27:32.596Z,32.13
2023-02-11T04:32:36.223Z,33.70
2023-02-11T04:37:41.031Z,35.60
2023-02-11T04:42:44.418Z,41.00
2023-02-11T04:47:49.085Z,36.70
2023-02-11T04:52:54.307Z,32.73
2023-02-11T04:58:00.779Z,34.73
2023-02-11T05:03:04.165Z,42.93
2023-02-11T05:08:11.100Z,38.10
2023-02-11T05:13:14.812Z,33.70
2023-02-11T05:18:18.459Z,33.03
2023-02-11T05:23:25.963Z,32.73
2023-02-11T05:28:30.166Z,34.70
2023-02-11T05:33:33.653Z,29.77
2023-02-11T05:38:39.389Z,33.53
2023-02-11T05:43:42.796Z,33.23
2023-02-11T05:48:48.354Z,34.33
2023-02-11T05:53:54.452Z,32.67
2023-02-11T05:59:00.664Z,41.20
2023-02-11T06:04:04.442Z,34.23
2023-02-11T06:09:10.432Z,32.07
2023-02-11T06:14:14.465Z,30.00
2023-02-11T06:19:18.091Z,28.13
2023-02-11T06:24:47.856Z,28.63
2023-02-11T06:29:46.761Z,33.93
2023-02-11T06:34:53.112Z,30.13
2023-02-11T06:39:57.927Z,32.33
2023-02-11T06:45:01.663Z,31.13
2023-02-11T06:50:09.047Z,33.53
2023-02-11T06:55:15.315Z,29.47
2023-02-11T07:00:19.570Z,31.57
2023-02-11T07:05:22.922Z,30.97
2023-02-11T07:10:27.664Z,29.70
2023-02-11T07:15:31.519Z,27.50
2023-02-11T07:20:35.140Z,29.83
2023-02-11T07:25:40.297Z,29.13
2023-02-11T07:30:43.827Z,28.67
2023-02-11T07:35:47.466Z,32.37
2023-02-11T07:40:52.225Z,37.17
2023-02-11T07:45:57.334Z,31.23
2023-02-11T07:51:07.558Z,31.43
2023-02-11T07:56:14.078Z,35.87
2023-02-11T08:01:22.595Z,33.00
2023-02-11T08:06:27.705Z,37.27
2023-02-11T08:11:33.017Z,36.60
2023-02-11T08:16:39.007Z,38.47
2023-02-11T08:21:43.373Z,32.50
2023-02-11T08:26:50.754Z,30.30
2023-02-11T08:31:54.147Z,32.83
2023-02-11T08:36:57.565Z,33.60
2023-02-11T08:42:02.478Z,33.93
2023-02-11T08:47:08.436Z,39.47
2023-02-11T08:52:11.793Z,35.83
2023-02-11T08:57:16.654Z,39.70
2023-02-11T09:02:20.425Z,35.27
2023-02-11T09:07:24.235Z,37.90
2023-02-11T09:12:29.069Z,41.47
2023-02-11T09:17:32.541Z,40.27
2023-02-11T09:22:36.389Z,36.10
2023-02-11T09:27:41.196Z,39.67
2023-02-11T09:32:45.816Z,35.03
2023-02-11T09:37:49.176Z,33.87
2023-02-11T09:43:03.083Z,38.07
2023-02-11T09:48:14.877Z,37.07
2023-02-11T09:53:27.104Z,39.63
2023-02-11T09:58:35.796Z,44.17
2023-02-11T10:04:05.562Z,32.63
2023-02-11T10:09:24.660Z,41.37
2023-02-11T10:14:51.989Z,30.23
2023-02-11T10:20:10.415Z,35.60
2023-02-11T10:25:24.953Z,32.97
2023-02-11T10:30:35.492Z,30.43
2023-02-11T10:35:40.381Z,30.93
2023-02-11T10:40:44.161Z,29.17
2023-02-11T10:45:53.506Z,35.53
2023-02-11T10:51:09.444Z,33.10
2023-02-11T10:56:15.750Z,31.33
2023-02-11T11:01:24.775Z,33.23
2023-02-11T11:06:33.598Z,29.50
2023-02-11T11:11:53.390Z,28.00
2023-02-11T11:16:58.432Z,30.47
2023-02-11T11:22:02.319Z,29.47
2023-02-11T11:27:07.457Z,27.57
2023-02-11T11:32:21.664Z,29.00
2023-02-11T11:37:28.087Z,27.43
2023-02-11T11:42:33.362Z,29.27
2023-02-11T11:47:46.403Z,25.37
2023-02-11T11:52:57.977Z,34.67
2023-02-11T11:58:01.540Z,27.10
2023-02-11T12:03:37.950Z,28.47
2023-02-11T12:08:54.336Z,25.30
2023-02-11T12:14:11.683Z,24.87
2023-02-11T12:19:39.783Z,28.67
2023-02-11T12:24:57.942Z,26.63
2023-02-11T12:30:10.510Z,30.50
2023-02-11T12:35:39.313Z,24.83
2023-02-11T12:40:48.899Z,26.53
2023-02-11T12:46:07.101Z,27.70
2023-02-11T12:51:23.589Z,26.17
2023-02-11T12:56:38.078Z,28.50
2023-02-11T13:01:45.186Z,26.67
2023-02-11T13:06:53.444Z,24.87
2023-02-11T13:12:24.412Z,25.87
2023-02-11T13:17:34.332Z,21.07
2023-02-11T13:22:43.896Z,27.60
2023-02-11T13:27:58.987Z,23.23
2023-02-11T13:33:06.702Z,28.67
2023-02-11T13:38:25.386Z,23.17
2023-02-11T13:43:32.044Z,22.67
2023-02-11T13:48:38.354Z,20.40
2023-02-11T13:53:49.274Z,19.23
2023-02-11T13:58:54.197Z,19.87
2023-02-11T14:04:38.145Z,20.30
2023-02-11T14:09:42.007Z,21.53
2023-02-11T14:15:19.036Z,20.97
2023-02-11T14:20:45.402Z,22.80
2023-02-11T14:25:59.833Z,21.10
2023-02-11T14:31:11.283Z,23.57
2023-02-11T14:36:32.664Z,20.73
2023-02-11T14:41:41.501Z,24.73
2023-02-11T14:46:52.542Z,24.97
2023-02-11T14:51:59.559Z,26.87
2023-02-11T14:57:13.936Z,25.20
2023-02-11T15:02:26.397Z,21.33
2023-02-11T15:07:30.485Z,22.53
2023-02-11T15:12:33.970Z,20.93
2023-02-11T15:17:43.322Z,22.43
2023-02-11T15:22:47.531Z,21.73
2023-02-11T15:27:53.153Z,24.73
2023-02-11T15:33:00.328Z,22.13
2023-02-11T15:38:05.996Z,24.40
2023-02-11T15:43:11.722Z,24.07
2023-02-11T15:48:20.373Z,25.20
2023-02-11T15:53:27.212Z,24.87
2023-02-11T15:58:37.970Z,24.47
2023-02-11T16:03:44.384Z,23.90
2023-02-11T16:09:02.585Z,26.90
2023-02-11T16:14:24.624Z,26.17
2023-02-11T16:19:31.809Z,26.37
2023-02-11T16:24:36.896Z,30.73
2023-02-11T16:29:40.666Z,30.27
2023-02-11T16:34:45.619Z,28.80
2023-02-11T16:39:49.322Z,28.93
2023-02-11T16:44:52.795Z,31.53
2023-02-11T16:49:58.269Z,29.33
2023-02-11T16:55:02.172Z,31.37
2023-02-11T17:00:07.801Z,28.50
2023-02-11T17:05:20.046Z,35.00
2023-02-11T17:10:27.109Z,29.57
2023-02-11T17:15:30.471Z,27.90
2023-02-11T17:20:35.313Z,26.90
2023-02-11T17:25:39.130Z,26.93
2023-02-11T17:30:44.194Z,26.00
2023-02-11T17:35:49.213Z,25.37
2023-02-11T17:40:59.945Z,29.90
2023-02-11T17:46:07.782Z,29.03
2023-02-11T17:51:24.206Z,29.50
2023-02-11T17:56:28.128Z,35.43
2023-02-11T18:01:33.526Z,27.87
2023-02-11T18:06:38.572Z,32.23
2023-02-11T18:11:42.551Z,35.53
2023-02-11T18:16:47.592Z,35.53
2023-02-11T18:21:53.064Z,37.83
2023-02-11T18:26:56.534Z,35.10
2023-02-11T18:32:02.583Z,35.03
2023-02-11T18:37:07.475Z,30.23
2023-02-11T18:42:16.871Z,32.20
2023-02-11T18:47:23.030Z,34.43
2023-02-11T18:52:31.442Z,33.87
2023-02-11T18:57:35.242Z,33.83
2023-02-11T19:02:39.045Z,33.20
2023-02-11T19:07:43.960Z,29.93
2023-02-11T19:12:47.399Z,30.27
2023-02-11T19:17:50.953Z,25.90
2023-02-11T19:22:55.755Z,27.90
2023-02-11T19:27:59.184Z,24.60
2023-02-11T19:33:02.597Z,24.87
2023-02-11T19:38:08.622Z,24.93
2023-02-11T19:43:12.555Z,27.43
2023-02-11T19:48:15.999Z,25.30
2023-02-11T19:53:21.191Z,27.37
2023-02-11T19:58:24.710Z,25.00
2023-02-11T20:03:28.469Z,24.77
2023-02-11T20:08:33.668Z,25.70
2023-02-11T20:13:37.866Z,23.90
2023-02-11T20:18:41.972Z,26.77
2023-02-11T20:23:47.441Z,23.23
2023-02-11T20:28:52.443Z,25.87
2023-02-11T20:33:56.522Z,24.37
2023-02-11T20:39:01.968Z,27.13
2023-02-11T20:44:08.357Z,26.43
2023-02-11T20:49:13.013Z,26.20
2023-02-11T20:54:19.881Z,25.93
2023-02-11T20:59:23.420Z,24.13
2023-02-11T21:04:29.601Z,27.10
2023-02-11T21:09:34.853Z,26.20
2023-02-11T21:14:38.273Z,23.03
2023-02-11T21:19:43.417Z,25.23
2023-02-11T21:24:48.204Z,26.30
2023-02-11T21:29:54.516Z,21.73
2023-02-11T21:35:00.614Z,28.83
2023-02-11T21:40:10.347Z,22.83
2023-02-11T21:45:14.186Z,23.47
2023-02-11T21:50:19.282Z,25.40
2023-02-11T21:55:24.432Z,22.80
2023-02-11T22:00:28.236Z,23.10
2023-02-11T22:05:31.942Z,20.73
2023-02-11T22:10:36.724Z,24.20
2023-02-11T22:15:40.192Z,25.20
2023-02-11T22:20:43.592Z,23.93
2023-02-11T22:25:48.401Z,20.53
2023-02-11T22:30:55.494Z,22.67
2023-02-11T22:36:03.128Z,23.43
2023-02-11T22:41:10.754Z,22.63
2023-02-11T22:46:16.554Z,22.00
2023-02-11T22:51:22.367Z,20.80
2023-02-11T22:56:28.704Z,21.33
2023-02-11T23:01:32.944Z,21.10
2023-02-11T23:06:36.644Z,20.40
2023-02-11T23:11:41.992Z,21.10
2023-02-11T23:16:45.446Z,24.07
2023-02-11T23:21:52.706Z,22.67
2023-02-11T23:26:57.472Z,24.33
2023-02-11T23:32:00.877Z,24.60
2023-02-11T23:37:04.291Z,24.97
2023-02-11T23:42:09.227Z,22.30
2023-02-11T23:47:12.927Z,24.30
2023-02-11T23:52:16.584Z,24.33
2023-02-11T23:57:22.017Z,25.03
